Kezdőlap
METAR-TAF:

METAR-TAF

Repülőterek :

Bécsújhelyi repülőtér

Bécsújhely, Ausztria

földrajzi szélesség: 47-50-36N, földrajzi hosszúság: 016-15-29E, magasság: 272 m

Jelenlegi meteorológiai megfigyelések

A jelentés 4 órával és 5 perccel ezelõtt készült, 16:00 UTC
Észak-északnyugati szél 6 kt
Hőmérséklet
Légköri nyomás

METAR: LOAN 191600Z 33006KT 10KM FEW050CU

Idő: 22:05 (20:05 UTC)

Előrejelzés

A jelentés 8 órával és 40 perccel ezelõtt készült, 11:25 UTC
Az előrejelzés 19-én 12 óra UTC és 19-én 21 óra UTC között érvényes
Északi szél 10 kt
Látótávolság: 9000 m
Kevés felhő 5000 lábon

TAF: LOAN 191125Z 1912/1921 35010KT 9000 FEW050

Meteorológiai megfigyelések és előrejelzések több, mint 4000 repülőtéren (METAR és TAF jelentéseket).

A térképen piros és sárga pontok jelzik az elérhető meteorológiai állomásokat.

Mozgassa az egeret a pont fölött, hogy megjelenjen az állomás neve.

Azután kattintson az időjárási megfigyelések és előrejelzések megtekintéséhez.

A térkép megváltoztatása: kattintson a fekete keresztel jelölt zöld gombra ráközelítéshez, a vonallal jelölt zöld gombra távolításhoz, vagy a zöld nyilakra a szomszédos térképek eléréséhez.


METAR-TAF: